sensor_id;sensor_type;location;lat;lon;timestamp;temperature;humidity
12309;DHT22;6217;48.150;17.142;2023-06-04T00:03:34;17.70;60.50
12309;DHT22;6217;48.150;17.142;2023-06-04T00:07:40;17.60;60.60
12309;DHT22;6217;48.150;17.142;2023-06-04T00:11:46;17.60;60.80
12309;DHT22;6217;48.150;17.142;2023-06-04T00:15:52;17.40;61.00
12309;DHT22;6217;48.150;17.142;2023-06-04T00:19:58;17.40;61.30
12309;DHT22;6217;48.150;17.142;2023-06-04T00:24:04;17.30;61.40
12309;DHT22;6217;48.150;17.142;2023-06-04T00:28:10;17.20;61.30
12309;DHT22;6217;48.150;17.142;2023-06-04T00:32:16;17.20;61.30
12309;DHT22;6217;48.150;17.142;2023-06-04T00:36:22;17.20;61.30
12309;DHT22;6217;48.150;17.142;2023-06-04T00:40:27;17.20;61.10
12309;DHT22;6217;48.150;17.142;2023-06-04T00:44:33;17.20;60.80
12309;DHT22;6217;48.150;17.142;2023-06-04T00:48:40;17.20;60.50
12309;DHT22;6217;48.150;17.142;2023-06-04T00:52:49;17.20;60.30
12309;DHT22;6217;48.150;17.142;2023-06-04T00:56:56;17.30;60.00
12309;DHT22;6217;48.150;17.142;2023-06-04T01:01:04;17.30;59.90
12309;DHT22;6217;48.150;17.142;2023-06-04T01:05:33;17.20;59.80
12309;DHT22;6217;48.150;17.142;2023-06-04T01:09:45;17.20;59.60
12309;DHT22;6217;48.150;17.142;2023-06-04T01:13:51;17.10;59.40
12309;DHT22;6217;48.150;17.142;2023-06-04T01:17:59;17.10;59.40
12309;DHT22;6217;48.150;17.142;2023-06-04T01:23:03;17.10;59.40
12309;DHT22;6217;48.150;17.142;2023-06-04T01:26:46;17.10;59.30
12309;DHT22;6217;48.150;17.142;2023-06-04T01:30:52;17.10;59.20
12309;DHT22;6217;48.150;17.142;2023-06-04T01:34:59;17.00;59.10
12309;DHT22;6217;48.150;17.142;2023-06-04T01:39:05;17.00;59.00
12309;DHT22;6217;48.150;17.142;2023-06-04T01:43:11;17.00;59.00
12309;DHT22;6217;48.150;17.142;2023-06-04T01:47:17;17.10;58.90
12309;DHT22;6217;48.150;17.142;2023-06-04T01:51:23;17.10;58.70
12309;DHT22;6217;48.150;17.142;2023-06-04T01:55:29;17.20;58.60
12309;DHT22;6217;48.150;17.142;2023-06-04T01:59:38;17.20;58.50
12309;DHT22;6217;48.150;17.142;2023-06-04T02:03:44;17.10;58.30
12309;DHT22;6217;48.150;17.142;2023-06-04T02:07:50;17.20;58.20
12309;DHT22;6217;48.150;17.142;2023-06-04T02:11:57;17.20;58.10
12309;DHT22;6217;48.150;17.142;2023-06-04T02:16:03;17.30;58.10
12309;DHT22;6217;48.150;17.142;2023-06-04T02:20:09;17.30;57.90
12309;DHT22;6217;48.150;17.142;2023-06-04T02:24:15;17.30;57.80
12309;DHT22;6217;48.150;17.142;2023-06-04T02:28:21;17.20;57.70
12309;DHT22;6217;48.150;17.142;2023-06-04T02:32:27;17.20;57.60
12309;DHT22;6217;48.150;17.142;2023-06-04T02:36:34;17.20;57.50
12309;DHT22;6217;48.150;17.142;2023-06-04T02:40:42;17.30;57.40
12309;DHT22;6217;48.150;17.142;2023-06-04T02:44:48;17.30;57.20
12309;DHT22;6217;48.150;17.142;2023-06-04T02:48:54;17.30;57.10
12309;DHT22;6217;48.150;17.142;2023-06-04T02:53:00;17.30;57.00
12309;DHT22;6217;48.150;17.142;2023-06-04T02:57:06;17.30;56.90
12309;DHT22;6217;48.150;17.142;2023-06-04T03:01:18;17.20;56.80
12309;DHT22;6217;48.150;17.142;2023-06-04T03:05:25;17.20;56.90
12309;DHT22;6217;48.150;17.142;2023-06-04T03:09:32;17.20;56.70
12309;DHT22;6217;48.150;17.142;2023-06-04T03:13:39;17.20;56.50
12309;DHT22;6217;48.150;17.142;2023-06-04T03:17:45;17.30;56.50
12309;DHT22;6217;48.150;17.142;2023-06-04T03:21:51;17.20;56.30
12309;DHT22;6217;48.150;17.142;2023-06-04T03:25:58;17.20;56.20
12309;DHT22;6217;48.150;17.142;2023-06-04T03:30:04;17.30;56.30
12309;DHT22;6217;48.150;17.142;2023-06-04T03:34:22;17.30;56.30
12309;DHT22;6217;48.150;17.142;2023-06-04T03:38:31;17.30;56.20
12309;DHT22;6217;48.150;17.142;2023-06-04T03:42:38;17.30;56.00
12309;DHT22;6217;48.150;17.142;2023-06-04T03:46:44;17.20;55.90
12309;DHT22;6217;48.150;17.142;2023-06-04T03:50:51;17.20;55.90
12309;DHT22;6217;48.150;17.142;2023-06-04T03:54:58;17.20;55.80
12309;DHT22;6217;48.150;17.142;2023-06-04T03:59:04;17.20;55.70
12309;DHT22;6217;48.150;17.142;2023-06-04T04:03:11;17.20;55.70
12309;DHT22;6217;48.150;17.142;2023-06-04T04:07:17;17.20;55.70
12309;DHT22;6217;48.150;17.142;2023-06-04T04:11:26;17.20;55.60
12309;DHT22;6217;48.150;17.142;2023-06-04T04:15:32;17.20;55.70
12309;DHT22;6217;48.150;17.142;2023-06-04T04:19:40;17.20;55.50
12309;DHT22;6217;48.150;17.142;2023-06-04T04:23:46;17.30;55.50
12309;DHT22;6217;48.150;17.142;2023-06-04T04:27:52;17.30;55.40
12309;DHT22;6217;48.150;17.142;2023-06-04T04:31:59;17.20;55.30
12309;DHT22;6217;48.150;17.142;2023-06-04T04:36:06;17.20;55.30
12309;DHT22;6217;48.150;17.142;2023-06-04T04:40:20;17.20;55.20
12309;DHT22;6217;48.150;17.142;2023-06-04T04:44:28;17.20;55.10
12309;DHT22;6217;48.150;17.142;2023-06-04T04:48:35;17.20;55.10
12309;DHT22;6217;48.150;17.142;2023-06-04T04:52:41;17.20;55.20
12309;DHT22;6217;48.150;17.142;2023-06-04T04:56:48;17.30;55.20
12309;DHT22;6217;48.150;17.142;2023-06-04T05:00:54;17.20;55.10
12309;DHT22;6217;48.150;17.142;2023-06-04T05:05:00;17.30;55.10
12309;DHT22;6217;48.150;17.142;2023-06-04T05:09:06;17.30;55.00
12309;DHT22;6217;48.150;17.142;2023-06-04T05:13:14;17.30;55.00
12309;DHT22;6217;48.150;17.142;2023-06-04T05:17:35;17.20;55.00
12309;DHT22;6217;48.150;17.142;2023-06-04T05:21:45;17.20;55.10
12309;DHT22;6217;48.150;17.142;2023-06-04T05:25:55;17.10;55.20
12309;DHT22;6217;48.150;17.142;2023-06-04T05:30:02;17.10;55.30
12309;DHT22;6217;48.150;17.142;2023-06-04T05:34:10;17.20;55.40
12309;DHT22;6217;48.150;17.142;2023-06-04T05:38:21;17.20;55.30
12309;DHT22;6217;48.150;17.142;2023-06-04T05:42:32;17.20;55.20
12309;DHT22;6217;48.150;17.142;2023-06-04T05:46:38;17.30;55.20
12309;DHT22;6217;48.150;17.142;2023-06-04T05:50:44;17.30;55.20
12309;DHT22;6217;48.150;17.142;2023-06-04T05:54:53;17.30;55.40
12309;DHT22;6217;48.150;17.142;2023-06-04T05:59:00;17.30;55.50
12309;DHT22;6217;48.150;17.142;2023-06-04T06:03:07;17.40;55.40
12309;DHT22;6217;48.150;17.142;2023-06-04T06:07:20;17.40;55.30
12309;DHT22;6217;48.150;17.142;2023-06-04T06:11:26;17.40;55.40
12309;DHT22;6217;48.150;17.142;2023-06-04T06:15:33;17.30;55.50
12309;DHT22;6217;48.150;17.142;2023-06-04T06:19:39;17.30;55.50
12309;DHT22;6217;48.150;17.142;2023-06-04T06:23:45;17.30;55.60
12309;DHT22;6217;48.150;17.142;2023-06-04T06:27:52;17.40;55.60
12309;DHT22;6217;48.150;17.142;2023-06-04T06:32:00;17.40;55.50
12309;DHT22;6217;48.150;17.142;2023-06-04T06:36:10;17.40;55.50
12309;DHT22;6217;48.150;17.142;2023-06-04T06:40:19;17.50;55.60
12309;DHT22;6217;48.150;17.142;2023-06-04T06:44:25;17.40;55.60
12309;DHT22;6217;48.150;17.142;2023-06-04T06:48:31;17.50;55.70
12309;DHT22;6217;48.150;17.142;2023-06-04T06:52:38;17.50;55.70
12309;DHT22;6217;48.150;17.142;2023-06-04T06:56:44;17.40;55.80
12309;DHT22;6217;48.150;17.142;2023-06-04T07:00:50;17.40;55.90
12309;DHT22;6217;48.150;17.142;2023-06-04T07:04:56;17.40;55.90
12309;DHT22;6217;48.150;17.142;2023-06-04T07:09:03;17.40;56.10
12309;DHT22;6217;48.150;17.142;2023-06-04T07:13:11;17.40;57.00
12309;DHT22;6217;48.150;17.142;2023-06-04T07:17:17;17.40;56.30
12309;DHT22;6217;48.150;17.142;2023-06-04T07:21:23;17.40;56.40
12309;DHT22;6217;48.150;17.142;2023-06-04T07:25:29;17.40;56.50
12309;DHT22;6217;48.150;17.142;2023-06-04T07:29:35;17.40;56.50
12309;DHT22;6217;48.150;17.142;2023-06-04T07:33:41;17.40;56.70
12309;DHT22;6217;48.150;17.142;2023-06-04T07:37:49;17.40;56.80
12309;DHT22;6217;48.150;17.142;2023-06-04T07:41:55;17.40;57.00
12309;DHT22;6217;48.150;17.142;2023-06-04T07:46:02;17.40;57.10
12309;DHT22;6217;48.150;17.142;2023-06-04T07:50:09;17.50;57.20
12309;DHT22;6217;48.150;17.142;2023-06-04T07:54:15;17.50;57.40
12309;DHT22;6217;48.150;17.142;2023-06-04T07:58:22;17.50;57.30
12309;DHT22;6217;48.150;17.142;2023-06-04T08:02:28;17.50;57.40
12309;DHT22;6217;48.150;17.142;2023-06-04T08:06:34;17.60;57.50
12309;DHT22;6217;48.150;17.142;2023-06-04T08:10:41;17.70;58.10
12309;DHT22;6217;48.150;17.142;2023-06-04T08:14:47;17.80;57.50
12309;DHT22;6217;48.150;17.142;2023-06-04T08:18:53;17.80;57.50
12309;DHT22;6217;48.150;17.142;2023-06-04T08:23:00;17.80;57.60
12309;DHT22;6217;48.150;17.142;2023-06-04T08:27:06;17.80;57.80
12309;DHT22;6217;48.150;17.142;2023-06-04T08:31:13;17.90;57.90
12309;DHT22;6217;48.150;17.142;2023-06-04T08:35:19;18.00;57.70
12309;DHT22;6217;48.150;17.142;2023-06-04T08:39:26;17.90;57.70
12309;DHT22;6217;48.150;17.142;2023-06-04T08:43:32;17.80;57.90
12309;DHT22;6217;48.150;17.142;2023-06-04T08:47:47;17.80;58.00
12309;DHT22;6217;48.150;17.142;2023-06-04T08:51:56;17.80;58.20
12309;DHT22;6217;48.150;17.142;2023-06-04T08:56:02;17.80;58.30
12309;DHT22;6217;48.150;17.142;2023-06-04T09:00:09;17.80;59.00
12309;DHT22;6217;48.150;17.142;2023-06-04T09:04:15;17.80;58.40
12309;DHT22;6217;48.150;17.142;2023-06-04T09:08:23;17.80;58.60
12309;DHT22;6217;48.150;17.142;2023-06-04T09:12:31;17.70;58.60
12309;DHT22;6217;48.150;17.142;2023-06-04T09:16:49;17.70;58.90
12309;DHT22;6217;48.150;17.142;2023-06-04T09:21:03;17.80;59.00
12309;DHT22;6217;48.150;17.142;2023-06-04T09:25:23;17.70;58.90
12309;DHT22;6217;48.150;17.142;2023-06-04T09:29:30;17.80;58.90
12309;DHT22;6217;48.150;17.142;2023-06-04T09:33:47;17.80;59.00
12309;DHT22;6217;48.150;17.142;2023-06-04T09:37:55;17.70;59.20
12309;DHT22;6217;48.150;17.142;2023-06-04T09:42:02;17.70;59.50
12309;DHT22;6217;48.150;17.142;2023-06-04T09:46:29;17.60;59.70
12309;DHT22;6217;48.150;17.142;2023-06-04T09:50:36;17.60;60.20
12309;DHT22;6217;48.150;17.142;2023-06-04T09:54:47;17.60;60.30
12309;DHT22;6217;48.150;17.142;2023-06-04T09:58:59;17.70;60.50
12309;DHT22;6217;48.150;17.142;2023-06-04T10:03:12;17.60;60.40
12309;DHT22;6217;48.150;17.142;2023-06-04T10:07:21;17.70;60.80
12309;DHT22;6217;48.150;17.142;2023-06-04T10:11:37;17.60;60.90
12309;DHT22;6217;48.150;17.142;2023-06-04T10:15:49;17.60;61.30
12309;DHT22;6217;48.150;17.142;2023-06-04T10:19:58;17.60;61.50
12309;DHT22;6217;48.150;17.142;2023-06-04T10:24:06;17.50;61.80
12309;DHT22;6217;48.150;17.142;2023-06-04T10:28:13;17.50;62.10
12309;DHT22;6217;48.150;17.142;2023-06-04T10:32:19;17.60;62.50
12309;DHT22;6217;48.150;17.142;2023-06-04T10:36:26;17.50;62.50
12309;DHT22;6217;48.150;17.142;2023-06-04T10:40:33;17.50;62.70
12309;DHT22;6217;48.150;17.142;2023-06-04T10:44:47;17.60;62.90
12309;DHT22;6217;48.150;17.142;2023-06-04T10:48:54;17.70;62.90
12309;DHT22;6217;48.150;17.142;2023-06-04T10:53:01;17.80;62.80
12309;DHT22;6217;48.150;17.142;2023-06-04T11:01:25;17.90;63.30
12309;DHT22;6217;48.150;17.142;2023-06-04T11:05:44;18.00;63.30
12309;DHT22;6217;48.150;17.142;2023-06-04T11:09:52;18.10;63.40
12309;DHT22;6217;48.150;17.142;2023-06-04T11:14:11;18.10;63.40
12309;DHT22;6217;48.150;17.142;2023-06-04T11:18:22;18.10;63.50
12309;DHT22;6217;48.150;17.142;2023-06-04T11:22:29;18.10;63.80
12309;DHT22;6217;48.150;17.142;2023-06-04T11:26:37;18.20;63.80
12309;DHT22;6217;48.150;17.142;2023-06-04T11:30:43;18.30;63.60
12309;DHT22;6217;48.150;17.142;2023-06-04T11:34:49;18.40;63.50
12309;DHT22;6217;48.150;17.142;2023-06-04T11:39:03;18.40;63.60
12309;DHT22;6217;48.150;17.142;2023-06-04T11:43:12;18.40;63.70
12309;DHT22;6217;48.150;17.142;2023-06-04T11:47:19;18.50;63.80
12309;DHT22;6217;48.150;17.142;2023-06-04T11:51:26;18.40;63.90
12309;DHT22;6217;48.150;17.142;2023-06-04T11:55:32;18.50;64.00
12309;DHT22;6217;48.150;17.142;2023-06-04T11:59:38;18.60;63.90
12309;DHT22;6217;48.150;17.142;2023-06-04T12:03:44;18.70;63.90
12309;DHT22;6217;48.150;17.142;2023-06-04T12:07:51;18.80;64.00
12309;DHT22;6217;48.150;17.142;2023-06-04T12:12:02;18.90;64.10
12309;DHT22;6217;48.150;17.142;2023-06-04T12:16:14;18.90;64.40
12309;DHT22;6217;48.150;17.142;2023-06-04T12:20:37;19.00;64.40
12309;DHT22;6217;48.150;17.142;2023-06-04T12:24:49;19.00;64.40
12309;DHT22;6217;48.150;17.142;2023-06-04T12:29:00;19.00;64.50
12309;DHT22;6217;48.150;17.142;2023-06-04T12:33:07;18.90;64.70
12309;DHT22;6217;48.150;17.142;2023-06-04T12:37:14;19.00;64.90
12309;DHT22;6217;48.150;17.142;2023-06-04T12:41:20;19.10;65.00
12309;DHT22;6217;48.150;17.142;2023-06-04T12:45:26;19.30;64.90
12309;DHT22;6217;48.150;17.142;2023-06-04T12:49:32;19.30;64.70
12309;DHT22;6217;48.150;17.142;2023-06-04T12:53:39;19.30;64.80
12309;DHT22;6217;48.150;17.142;2023-06-04T12:57:45;19.30;64.80
12309;DHT22;6217;48.150;17.142;2023-06-04T13:01:52;19.40;64.80
12309;DHT22;6217;48.150;17.142;2023-06-04T13:05:58;19.30;64.50
12309;DHT22;6217;48.150;17.142;2023-06-04T13:10:04;19.40;64.60
12309;DHT22;6217;48.150;17.142;2023-06-04T13:14:11;19.50;64.60
12309;DHT22;6217;48.150;17.142;2023-06-04T13:18:17;19.60;64.30
12309;DHT22;6217;48.150;17.142;2023-06-04T13:22:23;19.60;64.20
12309;DHT22;6217;48.150;17.142;2023-06-04T13:26:29;19.50;64.40
12309;DHT22;6217;48.150;17.142;2023-06-04T13:30:38;19.40;64.80
12309;DHT22;6217;48.150;17.142;2023-06-04T13:34:45;19.30;65.30
12309;DHT22;6217;48.150;17.142;2023-06-04T13:38:51;19.50;65.40
12309;DHT22;6217;48.150;17.142;2023-06-04T13:43:00;19.60;65.60
12309;DHT22;6217;48.150;17.142;2023-06-04T13:47:06;19.60;65.50
12309;DHT22;6217;48.150;17.142;2023-06-04T13:51:12;19.70;65.50
12309;DHT22;6217;48.150;17.142;2023-06-04T13:55:18;19.70;65.60
12309;DHT22;6217;48.150;17.142;2023-06-04T13:59:24;19.70;65.60
12309;DHT22;6217;48.150;17.142;2023-06-04T14:03:30;19.70;65.40
12309;DHT22;6217;48.150;17.142;2023-06-04T14:07:36;19.90;65.50
12309;DHT22;6217;48.150;17.142;2023-06-04T14:11:42;19.90;65.30
12309;DHT22;6217;48.150;17.142;2023-06-04T14:15:48;19.90;65.20
12309;DHT22;6217;48.150;17.142;2023-06-04T14:19:54;19.90;65.20
12309;DHT22;6217;48.150;17.142;2023-06-04T14:24:00;19.90;65.50
12309;DHT22;6217;48.150;17.142;2023-06-04T14:28:06;20.00;65.60
12309;DHT22;6217;48.150;17.142;2023-06-04T14:32:12;20.00;65.60
12309;DHT22;6217;48.150;17.142;2023-06-04T14:36:18;20.00;65.90
12309;DHT22;6217;48.150;17.142;2023-06-04T14:40:24;20.10;65.90
12309;DHT22;6217;48.150;17.142;2023-06-04T14:44:34;20.10;65.80
12309;DHT22;6217;48.150;17.142;2023-06-04T14:48:40;20.10;66.00
12309;DHT22;6217;48.150;17.142;2023-06-04T14:52:46;20.00;66.00
12309;DHT22;6217;48.150;17.142;2023-06-04T14:56:54;20.00;66.10
12309;DHT22;6217;48.150;17.142;2023-06-04T15:01:01;20.00;66.00
12309;DHT22;6217;48.150;17.142;2023-06-04T15:05:09;19.90;66.10
12309;DHT22;6217;48.150;17.142;2023-06-04T15:09:15;19.80;66.50
12309;DHT22;6217;48.150;17.142;2023-06-04T15:13:21;19.70;67.00
12309;DHT22;6217;48.150;17.142;2023-06-04T15:17:27;19.80;67.30
12309;DHT22;6217;48.150;17.142;2023-06-04T15:21:33;19.80;67.60
12309;DHT22;6217;48.150;17.142;2023-06-04T15:25:39;19.80;67.80
12309;DHT22;6217;48.150;17.142;2023-06-04T15:29:45;19.80;68.10
12309;DHT22;6217;48.150;17.142;2023-06-04T15:33:51;19.70;68.40
12309;DHT22;6217;48.150;17.142;2023-06-04T15:37:58;19.60;69.00
12309;DHT22;6217;48.150;17.142;2023-06-04T15:42:06;19.50;69.60
12309;DHT22;6217;48.150;17.142;2023-06-04T15:46:13;19.40;70.20
12309;DHT22;6217;48.150;17.142;2023-06-04T15:50:19;19.40;70.50
12309;DHT22;6217;48.150;17.142;2023-06-04T15:54:25;19.40;70.80
12309;DHT22;6217;48.150;17.142;2023-06-04T15:58:31;19.30;71.20
12309;DHT22;6217;48.150;17.142;2023-06-04T16:02:37;19.40;71.40
12309;DHT22;6217;48.150;17.142;2023-06-04T16:06:43;19.30;71.50
12309;DHT22;6217;48.150;17.142;2023-06-04T16:10:49;19.20;71.80
12309;DHT22;6217;48.150;17.142;2023-06-04T16:14:56;19.10;72.30
12309;DHT22;6217;48.150;17.142;2023-06-04T16:19:02;19.10;72.60
12309;DHT22;6217;48.150;17.142;2023-06-04T16:23:08;19.10;72.50
12309;DHT22;6217;48.150;17.142;2023-06-04T16:27:14;19.00;72.40
12309;DHT22;6217;48.150;17.142;2023-06-04T16:31:20;18.90;72.40
12309;DHT22;6217;48.150;17.142;2023-06-04T16:35:26;18.90;72.50
12309;DHT22;6217;48.150;17.142;2023-06-04T16:39:33;18.90;72.60
12309;DHT22;6217;48.150;17.142;2023-06-04T16:43:39;18.90;72.30
12309;DHT22;6217;48.150;17.142;2023-06-04T16:47:45;18.90;72.30
12309;DHT22;6217;48.150;17.142;2023-06-04T16:51:53;18.90;72.30
12309;DHT22;6217;48.150;17.142;2023-06-04T16:55:59;18.90;72.30
12309;DHT22;6217;48.150;17.142;2023-06-04T17:00:06;18.80;72.30
12309;DHT22;6217;48.150;17.142;2023-06-04T17:04:13;18.80;73.10
12309;DHT22;6217;48.150;17.142;2023-06-04T17:08:19;18.80;72.60
12309;DHT22;6217;48.150;17.142;2023-06-04T17:12:25;18.80;72.90
12309;DHT22;6217;48.150;17.142;2023-06-04T17:16:31;18.70;73.00
12309;DHT22;6217;48.150;17.142;2023-06-04T17:20:38;18.70;73.30
12309;DHT22;6217;48.150;17.142;2023-06-04T17:24:44;18.70;73.50
12309;DHT22;6217;48.150;17.142;2023-06-04T17:28:50;18.70;73.60
12309;DHT22;6217;48.150;17.142;2023-06-04T17:32:56;18.80;73.60
12309;DHT22;6217;48.150;17.142;2023-06-04T17:37:02;18.70;73.90
12309;DHT22;6217;48.150;17.142;2023-06-04T17:41:08;18.80;74.00
12309;DHT22;6217;48.150;17.142;2023-06-04T17:45:15;18.70;74.20
12309;DHT22;6217;48.150;17.142;2023-06-04T17:49:21;18.80;74.40
12309;DHT22;6217;48.150;17.142;2023-06-04T17:53:27;18.80;74.50
12309;DHT22;6217;48.150;17.142;2023-06-04T17:57:35;18.70;74.50
12309;DHT22;6217;48.150;17.142;2023-06-04T18:01:41;18.80;74.80
12309;DHT22;6217;48.150;17.142;2023-06-04T18:05:47;18.80;75.00
12309;DHT22;6217;48.150;17.142;2023-06-04T18:09:53;18.90;74.80
12309;DHT22;6217;48.150;17.142;2023-06-04T18:13:58;18.90;74.70
12309;DHT22;6217;48.150;17.142;2023-06-04T18:18:06;18.90;74.70
12309;DHT22;6217;48.150;17.142;2023-06-04T18:22:11;18.90;74.80
12309;DHT22;6217;48.150;17.142;2023-06-04T18:26:18;18.90;75.00
12309;DHT22;6217;48.150;17.142;2023-06-04T18:30:24;18.90;74.90
12309;DHT22;6217;48.150;17.142;2023-06-04T18:34:30;18.90;74.80
12309;DHT22;6217;48.150;17.142;2023-06-04T18:38:36;18.90;74.80
12309;DHT22;6217;48.150;17.142;2023-06-04T18:42:42;18.90;74.60
12309;DHT22;6217;48.150;17.142;2023-06-04T18:46:49;18.90;74.30
12309;DHT22;6217;48.150;17.142;2023-06-04T18:50:55;18.90;74.30
12309;DHT22;6217;48.150;17.142;2023-06-04T18:55:01;18.90;74.30
12309;DHT22;6217;48.150;17.142;2023-06-04T18:59:07;18.90;74.40
12309;DHT22;6217;48.150;17.142;2023-06-04T19:03:13;18.80;74.30
12309;DHT22;6217;48.150;17.142;2023-06-04T19:07:19;18.80;74.40
12309;DHT22;6217;48.150;17.142;2023-06-04T19:11:25;18.80;74.40
12309;DHT22;6217;48.150;17.142;2023-06-04T19:15:31;18.70;74.40
12309;DHT22;6217;48.150;17.142;2023-06-04T19:19:38;18.70;74.40
12309;DHT22;6217;48.150;17.142;2023-06-04T19:23:44;18.80;74.40
12309;DHT22;6217;48.150;17.142;2023-06-04T19:27:50;18.70;74.40
12309;DHT22;6217;48.150;17.142;2023-06-04T19:31:59;18.70;74.70
12309;DHT22;6217;48.150;17.142;2023-06-04T19:36:05;18.70;74.60
12309;DHT22;6217;48.150;17.142;2023-06-04T19:40:11;18.70;74.90
12309;DHT22;6217;48.150;17.142;2023-06-04T19:44:20;18.70;74.80
12309;DHT22;6217;48.150;17.142;2023-06-04T19:48:26;18.60;75.10
12309;DHT22;6217;48.150;17.142;2023-06-04T19:52:33;18.60;75.40
12309;DHT22;6217;48.150;17.142;2023-06-04T19:56:39;18.50;75.90
12309;DHT22;6217;48.150;17.142;2023-06-04T20:00:48;18.40;76.30
12309;DHT22;6217;48.150;17.142;2023-06-04T20:04:55;18.30;76.70
12309;DHT22;6217;48.150;17.142;2023-06-04T20:09:04;18.30;77.10
12309;DHT22;6217;48.150;17.142;2023-06-04T20:13:10;18.20;77.50
12309;DHT22;6217;48.150;17.142;2023-06-04T20:17:16;18.20;77.90
12309;DHT22;6217;48.150;17.142;2023-06-04T20:21:22;18.20;78.10
12309;DHT22;6217;48.150;17.142;2023-06-04T20:25:28;18.10;78.50
12309;DHT22;6217;48.150;17.142;2023-06-04T20:29:34;18.00;79.10
12309;DHT22;6217;48.150;17.142;2023-06-04T20:33:40;17.90;79.50
12309;DHT22;6217;48.150;17.142;2023-06-04T20:37:46;17.90;79.80
12309;DHT22;6217;48.150;17.142;2023-06-04T20:41:52;17.80;80.10
12309;DHT22;6217;48.150;17.142;2023-06-04T20:45:58;17.80;80.60
12309;DHT22;6217;48.150;17.142;2023-06-04T20:50:05;17.70;80.90
12309;DHT22;6217;48.150;17.142;2023-06-04T20:54:11;17.70;81.30
12309;DHT22;6217;48.150;17.142;2023-06-04T20:58:18;17.80;81.40
12309;DHT22;6217;48.150;17.142;2023-06-04T21:02:25;17.80;81.30
12309;DHT22;6217;48.150;17.142;2023-06-04T21:06:30;17.90;81.30
12309;DHT22;6217;48.150;17.142;2023-06-04T21:10:37;18.00;81.20
12309;DHT22;6217;48.150;17.142;2023-06-04T21:14:43;18.00;81.30
12309;DHT22;6217;48.150;17.142;2023-06-04T21:18:52;18.00;81.50
12309;DHT22;6217;48.150;17.142;2023-06-04T21:22:58;18.00;81.70
12309;DHT22;6217;48.150;17.142;2023-06-04T21:27:05;18.00;81.80
12309;DHT22;6217;48.150;17.142;2023-06-04T21:31:11;18.00;81.70
12309;DHT22;6217;48.150;17.142;2023-06-04T21:35:17;18.00;81.60
12309;DHT22;6217;48.150;17.142;2023-06-04T21:39:23;18.00;81.30
12309;DHT22;6217;48.150;17.142;2023-06-04T21:43:29;18.00;81.20
12309;DHT22;6217;48.150;17.142;2023-06-04T21:47:35;18.00;81.20
12309;DHT22;6217;48.150;17.142;2023-06-04T21:51:41;18.00;81.20
12309;DHT22;6217;48.150;17.142;2023-06-04T21:55:47;17.90;81.30
12309;DHT22;6217;48.150;17.142;2023-06-04T21:59:53;18.00;81.30
12309;DHT22;6217;48.150;17.142;2023-06-04T22:03:59;18.00;81.30
12309;DHT22;6217;48.150;17.142;2023-06-04T22:08:05;18.10;81.30
12309;DHT22;6217;48.150;17.142;2023-06-04T22:12:11;18.10;81.30
12309;DHT22;6217;48.150;17.142;2023-06-04T22:16:17;18.20;81.00
12309;DHT22;6217;48.150;17.142;2023-06-04T22:20:23;18.20;80.90
12309;DHT22;6217;48.150;17.142;2023-06-04T22:24:29;18.30;80.70
12309;DHT22;6217;48.150;17.142;2023-06-04T22:28:35;18.40;80.40
12309;DHT22;6217;48.150;17.142;2023-06-04T22:32:41;18.30;80.30
12309;DHT22;6217;48.150;17.142;2023-06-04T22:36:47;18.30;80.40
12309;DHT22;6217;48.150;17.142;2023-06-04T22:40:53;18.10;80.80
12309;DHT22;6217;48.150;17.142;2023-06-04T22:44:59;18.00;81.30
12309;DHT22;6217;48.150;17.142;2023-06-04T22:49:05;18.00;81.70
12309;DHT22;6217;48.150;17.142;2023-06-04T22:53:11;17.90;81.90
12309;DHT22;6217;48.150;17.142;2023-06-04T22:57:18;17.70;82.50
12309;DHT22;6217;48.150;17.142;2023-06-04T23:01:24;17.70;83.10
12309;DHT22;6217;48.150;17.142;2023-06-04T23:05:32;17.70;83.30
12309;DHT22;6217;48.150;17.142;2023-06-04T23:09:38;17.50;83.80
12309;DHT22;6217;48.150;17.142;2023-06-04T23:13:44;17.60;84.20
12309;DHT22;6217;48.150;17.142;2023-06-04T23:17:51;17.50;84.50
12309;DHT22;6217;48.150;17.142;2023-06-04T23:21:57;17.60;84.50
12309;DHT22;6217;48.150;17.142;2023-06-04T23:26:06;17.60;84.30
12309;DHT22;6217;48.150;17.142;2023-06-04T23:30:12;17.50;84.50
12309;DHT22;6217;48.150;17.142;2023-06-04T23:34:18;17.60;84.70
12309;DHT22;6217;48.150;17.142;2023-06-04T23:38:25;17.60;84.70
12309;DHT22;6217;48.150;17.142;2023-06-04T23:42:32;17.60;84.80
12309;DHT22;6217;48.150;17.142;2023-06-04T23:46:38;17.60;84.70
12309;DHT22;6217;48.150;17.142;2023-06-04T23:50:44;17.60;85.00
12309;DHT22;6217;48.150;17.142;2023-06-04T23:54:50;17.50;85.00
12309;DHT22;6217;48.150;17.142;2023-06-04T23:58:56;17.50;85.10
